Epe, Netherlands
Current Conditions -  °F | °C
As of 9:25 AM on Monday 26 Jan 2015 (Local Time) from EHDL Reporting Station
Haze Haze  
Wind Chill: 30°   Ceiling: 200
Heat Index: 37°   Visibility: 0.62mi
Dew Point: 37°   Wind: 12mph
Humidity: 100%   Direction: 210°SSW
Pressure: 30.09"   Gusts: NA
Location:  52.35°N, 5.98°E
Report Text: EHDL 260825Z AUTO 21010KT 1000 BR OVC002 03/03 Q1019 AMB
Loading
Personal Weather Stations






























Interactive Weather Map New forecast layout! Learn more

10-Day Weather Forecast

Advertisements
Track Severe Weather on mobile